Time;durP1;ratioP1;P1;durP2;ratioP2;P2;SDS_P1;SDS_P2;PMS_P1;PMS_P2;Temp;Humidity;BMP_temperature;BMP_pressure;BME280_temperature;BME280_humidity;BME280_pressure;Samples;Min_cycle;Max_cycle;Signal;HPM_P1;HPM_P2
2022/04/30 00:00:06;;;;;;;1.77;0.45;;;5.40;99.90;;;;;;5045733;28;20108;-66
2022/04/30 00:02:32;;;;;;;1.75;0.40;;;5.40;99.90;;;;;;5059080;28;20035;-66
2022/04/30 00:04:57;;;;;;;1.13;0.35;;;5.30;99.90;;;;;;5044605;28;20041;-67
2022/04/30 00:07:23;;;;;;;1.20;0.40;;;5.30;99.90;;;;;;5043925;28;20036;-66
2022/04/30 00:09:49;;;;;;;1.50;0.40;;;5.20;99.90;;;;;;5048113;28;20061;-67
2022/04/30 00:12:18;;;;;;;0.95;0.30;;;5.30;99.90;;;;;;5043132;28;20025;-65
2022/04/30 00:14:46;;;;;;;1.55;0.40;;;5.20;99.90;;;;;;5047896;28;20018;-67
2022/04/30 00:17:15;;;;;;;0.80;0.30;;;5.20;99.90;;;;;;5049323;28;20029;-66
2022/04/30 00:19:41;;;;;;;1.67;0.40;;;5.20;99.90;;;;;;5043419;28;20084;-66
2022/04/30 00:22:09;;;;;;;0.38;0.20;;;5.10;99.90;;;;;;5047016;28;20022;-66
2022/04/30 00:24:35;;;;;;;1.65;0.40;;;5.10;99.90;;;;;;5045128;28;20025;-66
2022/04/30 00:27:01;;;;;;;0.60;0.30;;;5.10;99.90;;;;;;5046335;28;20052;-66
2022/04/30 00:29:31;;;;;;;1.60;0.40;;;5.00;99.90;;;;;;5046930;28;20044;-66
2022/04/30 00:32:00;;;;;;;1.42;0.35;;;5.00;99.90;;;;;;5044910;28;20099;-67
2022/04/30 00:34:26;;;;;;;0.93;0.30;;;4.90;99.90;;;;;;5044677;28;20076;-66
2022/04/30 00:36:51;;;;;;;0.98;0.30;;;5.00;99.90;;;;;;5046740;28;20025;-66
2022/04/30 00:39:17;;;;;;;1.27;0.38;;;5.00;99.90;;;;;;5049419;28;20025;-66
2022/04/30 00:41:47;;;;;;;1.92;0.40;;;5.00;99.90;;;;;;5049419;28;20481;-64
2022/04/30 00:44:18;;;;;;;1.27;0.30;;;5.00;99.90;;;;;;5040633;28;20042;-64
2022/04/30 00:46:44;;;;;;;0.98;0.30;;;5.00;99.90;;;;;;5046999;28;20090;-65
2022/04/30 00:49:10;;;;;;;0.93;0.30;;;5.00;99.90;;;;;;5046344;28;20025;-64
2022/04/30 00:51:40;;;;;;;0.73;0.30;;;4.90;99.90;;;;;;5047007;28;20033;-65
2022/04/30 00:54:07;;;;;;;0.77;0.30;;;5.00;99.90;;;;;;5040717;28;20037;-66
2022/04/30 00:56:46;;;;;;;0.43;0.30;;;5.00;99.90;;;;;;5046380;28;20025;-65
2022/04/30 00:59:19;;;;;;;0.70;0.30;;;4.90;99.90;;;;;;5042022;28;20032;-65
2022/04/30 01:01:46;;;;;;;0.73;0.30;;;4.90;99.90;;;;;;5046404;28;20075;-64
2022/04/30 01:04:15;;;;;;;0.70;0.30;;;4.90;99.90;;;;;;5045188;28;20096;-66
2022/04/30 01:06:57;;;;;;;0.68;0.30;;;4.80;99.90;;;;;;5045891;28;20074;-65
2022/04/30 01:09:28;;;;;;;1.23;0.32;;;4.90;99.90;;;;;;5042547;28;20036;-66
2022/04/30 01:12:02;;;;;;;1.58;0.35;;;4.80;99.90;;;;;;5048901;28;20025;-66
2022/04/30 01:14:31;;;;;;;1.33;0.40;;;4.70;99.90;;;;;;5047960;28;20021;-66
2022/04/30 01:17:02;;;;;;;0.93;0.30;;;4.80;99.90;;;;;;5045809;28;20025;-66
2022/04/30 01:19:28;;;;;;;0.97;0.30;;;4.80;99.90;;;;;;5038325;28;20036;-65
2022/04/30 01:21:59;;;;;;;0.88;0.30;;;4.80;99.90;;;;;;5047037;28;20032;-65
2022/04/30 01:24:27;;;;;;;1.73;0.40;;;4.70;99.90;;;;;;5042416;28;20079;-66
2022/04/30 01:26:55;;;;;;;0.90;0.30;;;4.70;99.90;;;;;;5046550;28;20039;-66
2022/04/30 01:29:23;;;;;;;1.02;0.30;;;4.70;99.90;;;;;;5042278;28;20025;-66
2022/04/30 01:37:25;;;;;;;1.48;0.40;;;4.60;99.90;;;;;;5040958;28;20106;-66
2022/04/30 01:40:03;;;;;;;0.80;0.30;;;4.60;99.90;;;;;;5043504;28;20478;-66
2022/04/30 01:42:31;;;;;;;1.08;0.30;;;4.50;99.90;;;;;;5048133;28;20017;-66
2022/04/30 01:45:00;;;;;;;0.80;0.30;;;4.60;99.90;;;;;;5047210;28;20118;-66
2022/04/30 01:47:28;;;;;;;1.02;0.35;;;4.60;99.90;;;;;;5046484;28;20032;-63
2022/04/30 01:49:53;;;;;;;1.23;0.30;;;4.50;99.90;;;;;;5043156;28;20029;-65
2022/04/30 01:52:19;;;;;;;1.23;0.32;;;4.50;99.90;;;;;;5045255;28;20032;-66
2022/04/30 01:54:45;;;;;;;0.85;0.30;;;4.40;99.90;;;;;;5042293;28;20044;-65
2022/04/30 01:57:12;;;;;;;1.25;0.30;;;4.40;99.90;;;;;;5041244;28;20033;-65
2022/04/30 01:59:38;;;;;;;1.45;0.40;;;4.40;99.90;;;;;;5046331;28;20041;-65
2022/04/30 02:02:05;;;;;;;1.33;0.40;;;4.40;99.90;;;;;;5043749;28;20392;-65
2022/04/30 02:04:34;;;;;;;1.38;0.40;;;4.40;99.90;;;;;;5044596;28;20040;-65
2022/04/30 02:07:01;;;;;;;1.08;0.30;;;4.40;99.90;;;;;;5047144;28;20129;-64
2022/04/30 02:09:28;;;;;;;1.65;0.35;;;4.30;99.90;;;;;;5039316;28;20507;-65
2022/04/30 02:12:01;;;;;;;0.80;0.30;;;4.40;99.90;;;;;;5042630;28;20030;-64
2022/04/30 02:14:30;;;;;;;1.33;0.40;;;4.40;99.90;;;;;;5046292;28;20032;-64
2022/04/30 02:17:01;;;;;;;1.27;0.40;;;4.30;99.90;;;;;;5052641;28;20041;-65
2022/04/30 02:19:28;;;;;;;0.90;0.30;;;4.30;99.90;;;;;;5043272;28;20020;-65
2022/04/30 02:21:57;;;;;;;1.80;0.40;;;4.30;99.90;;;;;;5046810;28;20389;-66
2022/04/30 02:24:32;;;;;;;1.38;0.40;;;4.20;99.90;;;;;;5044336;28;20083;-65
2022/04/30 02:26:58;;;;;;;1.23;0.40;;;4.20;99.90;;;;;;5042440;28;20036;-65
2022/04/30 02:29:24;;;;;;;1.45;0.40;;;4.30;99.90;;;;;;5041333;28;20029;-65
2022/04/30 02:31:50;;;;;;;1.30;0.38;;;4.20;99.90;;;;;;5040957;28;20437;-65
2022/04/30 02:34:16;;;;;;;0.95;0.30;;;4.20;99.90;;;;;;5049574;28;20029;-65
2022/04/30 02:36:41;;;;;;;1.23;0.30;;;4.20;99.90;;;;;;5046409;28;20032;-65
2022/04/30 02:39:07;;;;;;;1.33;0.40;;;4.30;99.90;;;;;;5048685;28;20041;-65
2022/04/30 02:41:34;;;;;;;1.52;0.40;;;4.30;99.90;;;;;;5046336;28;20045;-65
2022/04/30 02:44:00;;;;;;;1.90;0.40;;;4.30;99.90;;;;;;5051021;28;20041;-65
2022/04/30 02:46:29;;;;;;;1.15;0.30;;;4.30;99.90;;;;;;5047617;28;20106;-65
2022/04/30 02:48:55;;;;;;;1.50;0.35;;;4.40;99.90;;;;;;5047670;28;20032;-65
2022/04/30 02:51:21;;;;;;;0.98;0.30;;;4.40;99.90;;;;;;5051318;28;20044;-65
2022/04/30 02:53:46;;;;;;;1.02;0.30;;;4.40;99.90;;;;;;5050293;28;20048;-65
2022/04/30 02:56:12;;;;;;;1.58;0.40;;;4.30;99.90;;;;;;5048150;28;20125;-65
2022/04/30 03:01:22;;;;;;;1.35;0.30;;;4.40;99.90;;;;;;5045642;28;20463;-65
2022/04/30 03:03:48;;;;;;;0.95;0.30;;;4.40;99.90;;;;;;5050855;28;20032;-65
2022/04/30 03:06:17;;;;;;;1.27;0.30;;;4.40;99.90;;;;;;5048112;28;20041;-65
2022/04/30 03:08:47;;;;;;;1.70;0.40;;;4.40;99.90;;;;;;5049151;28;20047;-65
2022/04/30 03:11:13;;;;;;;1.23;0.30;;;4.40;99.90;;;;;;5008561;28;1109411;-65
2022/04/30 03:13:39;;;;;;;1.88;0.45;;;4.50;99.90;;;;;;5048349;28;20076;-65
2022/04/30 03:21:44;;;;;;;1.33;0.30;;;4.50;99.90;;;;;;5044915;28;20048;-65
2022/04/30 03:24:11;;;;;;;1.23;0.32;;;4.50;99.90;;;;;;5050854;28;20036;-65
2022/04/30 03:26:37;;;;;;;1.17;0.40;;;4.50;99.90;;;;;;5054290;28;20386;-65
2022/04/30 03:29:03;;;;;;;0.35;0.30;;;4.40;99.90;;;;;;5054920;28;20044;-65
2022/04/30 03:31:30;;;;;;;1.55;0.40;;;4.40;99.90;;;;;;5044432;28;20037;-65
2022/04/30 03:33:56;;;;;;;1.42;0.30;;;4.40;99.90;;;;;;5050903;28;20018;-65
2022/04/30 03:36:22;;;;;;;0.90;0.30;;;4.40;99.90;;;;;;5040412;28;20036;-66
2022/04/30 03:38:47;;;;;;;0.80;0.30;;;4.40;99.90;;;;;;5046714;28;20033;-65
2022/04/30 03:41:15;;;;;;;1.20;0.30;;;4.40;99.90;;;;;;5040528;28;20052;-65
2022/04/30 03:43:41;;;;;;;1.95;0.43;;;4.40;99.90;;;;;;5048883;28;20410;-65
2022/04/30 03:46:07;;;;;;;0.80;0.30;;;4.40;99.90;;;;;;5048062;28;20032;-65
2022/04/30 03:48:33;;;;;;;0.80;0.30;;;4.40;99.90;;;;;;5047709;28;20026;-65
2022/04/30 03:50:59;;;;;;;1.80;0.40;;;4.40;99.90;;;;;;5050468;28;20093;-64
2022/04/30 03:53:25;;;;;;;1.35;0.40;;;4.40;99.90;;;;;;5050897;28;20033;-65
2022/04/30 03:55:52;;;;;;;1.17;0.40;;;4.40;99.90;;;;;;5046125;28;20048;-65
2022/04/30 03:58:17;;;;;;;2.13;0.43;;;4.40;99.90;;;;;;5046842;28;20049;-65
2022/04/30 04:00:45;;;;;;;0.85;0.30;;;4.40;99.90;;;;;;5046945;28;20469;-65
2022/04/30 04:03:11;;;;;;;1.15;0.30;;;4.30;99.90;;;;;;5046723;28;20109;-65
2022/04/30 04:05:38;;;;;;;1.60;0.40;;;4.30;99.90;;;;;;5049129;28;20072;-66
2022/04/30 04:08:10;;;;;;;0.90;0.30;;;4.40;99.90;;;;;;5050343;28;20021;-65
2022/04/30 04:10:36;;;;;;;2.00;0.47;;;4.40;99.90;;;;;;5049432;28;20051;-65
2022/04/30 04:18:30;;;;;;;0.88;0.30;;;4.40;99.90;;;;;;5044974;28;20052;-65
2022/04/30 04:20:56;;;;;;;1.40;0.40;;;4.40;99.90;;;;;;5044815;28;20077;-66
2022/04/30 04:23:22;;;;;;;1.13;0.30;;;4.50;99.90;;;;;;5045030;28;20452;-65
2022/04/30 04:26:00;;;;;;;1.45;0.40;;;4.40;99.90;;;;;;5043662;28;20053;-65
2022/04/30 04:28:27;;;;;;;1.25;0.30;;;4.50;99.90;;;;;;5043725;28;20033;-66
2022/04/30 04:30:53;;;;;;;0.88;0.30;;;4.50;99.90;;;;;;5046467;28;20104;-65
2022/04/30 04:33:19;;;;;;;1.23;0.30;;;4.50;99.90;;;;;;5048161;28;20057;-66
2022/04/30 04:35:44;;;;;;;0.80;0.30;;;4.60;99.90;;;;;;5044669;28;20032;-65
2022/04/30 04:38:10;;;;;;;1.60;0.38;;;4.50;99.90;;;;;;5045036;28;20049;-66
2022/04/30 04:40:35;;;;;;;1.42;0.40;;;4.60;99.90;;;;;;5044113;28;20037;-66
2022/04/30 04:43:01;;;;;;;1.02;0.30;;;4.60;99.90;;;;;;5044922;28;20127;-66
2022/04/30 04:45:28;;;;;;;0.95;0.30;;;4.70;99.90;;;;;;5049278;28;20075;-65
2022/04/30 04:47:54;;;;;;;1.38;0.35;;;4.80;99.90;;;;;;5048039;28;20065;-66
2022/04/30 04:50:23;;;;;;;0.85;0.30;;;4.80;99.90;;;;;;5047472;28;20036;-66
2022/04/30 04:52:49;;;;;;;1.10;0.30;;;4.80;99.90;;;;;;5046922;28;20043;-66
2022/04/30 04:55:15;;;;;;;0.88;0.30;;;4.90;99.90;;;;;;5046751;28;20115;-66
2022/04/30 04:57:41;;;;;;;1.65;0.40;;;4.90;99.90;;;;;;5041852;28;20033;-66
2022/04/30 05:00:10;;;;;;;1.23;0.30;;;5.00;99.90;;;;;;5048049;28;20017;-66
2022/04/30 05:02:36;;;;;;;1.67;0.40;;;5.10;99.90;;;;;;5047089;28;20021;-66
2022/04/30 05:05:03;;;;;;;1.30;0.40;;;5.10;99.90;;;;;;5047672;28;20021;-66
2022/04/30 05:07:29;;;;;;;1.50;0.40;;;5.20;99.90;;;;;;5043136;28;20055;-66
2022/04/30 05:09:54;;;;;;;1.42;0.40;;;5.20;99.90;;;;;;5047263;28;20057;-66
2022/04/30 05:12:20;;;;;;;1.58;0.40;;;5.30;99.90;;;;;;5039705;28;20061;-66
2022/04/30 05:14:48;;;;;;;1.23;0.35;;;5.40;99.90;;;;;;5044438;28;20017;-66
2022/04/30 05:17:14;;;;;;;1.75;0.40;;;5.40;99.90;;;;;;5044412;28;20397;-65
2022/04/30 05:19:40;;;;;;;1.20;0.35;;;5.50;99.90;;;;;;5044794;28;20221;-66
2022/04/30 05:22:06;;;;;;;0.95;0.30;;;5.50;99.90;;;;;;5047620;28;20029;-65
2022/04/30 05:24:32;;;;;;;0.88;0.30;;;5.50;99.90;;;;;;5045517;28;20126;-66
2022/04/30 05:26:58;;;;;;;0.93;0.30;;;5.60;99.90;;;;;;5042784;28;20036;-65
2022/04/30 05:29:23;;;;;;;1.48;0.40;;;5.70;99.90;;;;;;5044477;28;20022;-65
2022/04/30 05:31:49;;;;;;;1.58;0.40;;;5.80;99.90;;;;;;5044734;28;20369;-66
2022/04/30 05:34:15;;;;;;;0.95;0.30;;;5.90;99.90;;;;;;5048507;28;20083;-66
2022/04/30 05:36:40;;;;;;;1.35;0.40;;;6.00;99.90;;;;;;5042346;28;21203;-65
2022/04/30 05:39:06;;;;;;;1.08;0.30;;;6.20;99.90;;;;;;5047923;28;20040;-66
2022/04/30 05:41:32;;;;;;;0.88;0.30;;;6.30;99.90;;;;;;5041844;28;20480;-66
2022/04/30 05:43:57;;;;;;;0.90;0.30;;;6.40;99.90;;;;;;5047814;28;20396;-66
2022/04/30 05:46:23;;;;;;;1.13;0.57;;;6.40;99.90;;;;;;5045070;28;20050;-65
2022/04/30 05:48:49;;;;;;;0.75;0.30;;;6.50;99.90;;;;;;5046543;28;20082;-65
2022/04/30 05:51:14;;;;;;;1.40;0.40;;;6.60;99.90;;;;;;5038636;28;20347;-65
2022/04/30 05:53:40;;;;;;;0.63;0.30;;;6.70;99.90;;;;;;5046029;28;20025;-68
2022/04/30 05:56:06;;;;;;;0.90;0.30;;;6.80;99.90;;;;;;5046456;28;20064;-66
2022/04/30 05:58:32;;;;;;;1.05;0.40;;;6.80;99.90;;;;;;5041021;28;20025;-66
2022/04/30 06:00:57;;;;;;;1.10;0.43;;;7.00;99.90;;;;;;5045913;28;20025;-66
2022/04/30 06:03:23;;;;;;;1.52;0.38;;;7.00;99.90;;;;;;5048827;28;20027;-66
2022/04/30 06:05:51;;;;;;;0.85;0.30;;;7.00;99.90;;;;;;5044512;28;20047;-65
2022/04/30 06:08:17;;;;;;;1.67;0.40;;;7.10;99.90;;;;;;5055493;28;20029;-65
2022/04/30 06:10:43;;;;;;;1.35;0.40;;;7.10;99.90;;;;;;5052956;28;20068;-66
2022/04/30 06:13:10;;;;;;;1.20;0.40;;;7.20;99.90;;;;;;5050314;28;20029;-66
2022/04/30 06:15:35;;;;;;;1.08;0.40;;;7.30;99.90;;;;;;5041936;28;20040;-65
2022/04/30 06:18:01;;;;;;;0.90;0.30;;;7.40;99.90;;;;;;5047725;28;20028;-66
2022/04/30 06:20:26;;;;;;;1.38;0.40;;;7.50;99.90;;;;;;5048628;28;20084;-66
2022/04/30 06:22:52;;;;;;;1.10;0.40;;;7.60;99.90;;;;;;5049293;28;20025;-66
2022/04/30 06:25:18;;;;;;;1.50;0.40;;;7.70;99.90;;;;;;5055811;28;20041;-66
2022/04/30 06:27:43;;;;;;;1.70;0.40;;;7.80;99.90;;;;;;5046213;28;20026;-66
2022/04/30 06:30:09;;;;;;;1.52;0.40;;;7.90;99.90;;;;;;5055594;28;20041;-66
2022/04/30 06:32:35;;;;;;;0.38;0.28;;;8.00;99.90;;;;;;5048483;28;20021;-66
2022/04/30 06:35:02;;;;;;;0.93;0.30;;;8.10;99.90;;;;;;5050474;28;20029;-66
2022/04/30 06:37:28;;;;;;;0.38;0.30;;;8.20;99.90;;;;;;5053819;28;20025;-65
2022/04/30 06:39:54;;;;;;;0.98;0.30;;;8.30;99.90;;;;;;5045625;28;20079;-66
2022/04/30 06:42:19;;;;;;;0.98;0.30;;;8.40;99.90;;;;;;5047254;28;20052;-78
2022/04/30 06:44:47;;;;;;;1.55;0.40;;;8.40;99.90;;;;;;5050742;28;20029;-78
2022/04/30 06:47:14;;;;;;;0.82;0.30;;;8.60;99.90;;;;;;5041994;28;20120;-72
2022/04/30 06:49:40;;;;;;;0.85;0.30;;;8.60;99.90;;;;;;5053854;28;20028;-83
2022/04/30 06:52:06;;;;;;;0.80;0.30;;;8.90;99.90;;;;;;5049689;28;20665;-83
2022/04/30 06:57:20;;;;;;;0.30;0.20;;;9.10;99.90;;;;;;5046951;28;20122;-71
2022/04/30 06:59:46;;;;;;;0.52;0.30;;;9.20;99.90;;;;;;5070502;28;20093;-67
2022/04/30 07:02:21;;;;;;;1.15;0.32;;;9.30;99.90;;;;;;5049196;28;20029;-67
2022/04/30 07:04:50;;;;;;;0.57;0.30;;;9.50;99.90;;;;;;5058691;28;20057;-67
2022/04/30 07:07:17;;;;;;;0.60;0.30;;;9.50;99.90;;;;;;5058239;28;20037;-67
2022/04/30 07:09:42;;;;;;;1.23;0.35;;;9.70;99.90;;;;;;5057277;28;20032;-67
2022/04/30 07:12:09;;;;;;;0.38;0.20;;;9.70;99.90;;;;;;5061103;28;20044;-67
2022/04/30 07:14:37;;;;;;;0.70;0.30;;;9.90;99.90;;;;;;5047813;28;20037;-66
2022/04/30 07:17:04;;;;;;;0.65;0.30;;;10.00;99.90;;;;;;5063765;28;20445;-67
2022/04/30 07:19:30;;;;;;;0.65;0.40;;;10.20;99.90;;;;;;5061262;28;20039;-67
2022/04/30 07:21:56;;;;;;;0.68;0.30;;;10.40;99.90;;;;;;5063902;28;20524;-68
2022/04/30 07:24:21;;;;;;;1.00;0.30;;;10.60;99.90;;;;;;5046381;28;20021;-67
2022/04/30 07:26:47;;;;;;;0.25;0.20;;;10.70;99.90;;;;;;5048431;28;20037;-68
2022/04/30 07:29:12;;;;;;;0.55;0.30;;;10.70;99.90;;;;;;5061590;28;20031;-68
2022/04/30 07:31:38;;;;;;;0.70;0.30;;;10.90;99.90;;;;;;5042018;28;20029;-68
2022/04/30 07:34:04;;;;;;;0.52;0.30;;;11.00;99.90;;;;;;5047767;28;20029;-67
2022/04/30 07:36:30;;;;;;;0.35;0.20;;;11.10;99.90;;;;;;5054679;28;20040;-68
2022/04/30 07:38:56;;;;;;;0.70;0.30;;;11.30;99.90;;;;;;5062078;28;20523;-67
2022/04/30 07:41:22;;;;;;;0.38;0.20;;;11.20;99.90;;;;;;5047322;28;20025;-68
2022/04/30 07:43:47;;;;;;;0.80;0.30;;;11.40;99.90;;;;;;5057482;28;20041;-68
2022/04/30 07:46:13;;;;;;;0.68;0.30;;;11.50;99.90;;;;;;5042604;28;20033;-68
2022/04/30 07:48:39;;;;;;;0.20;0.20;;;11.40;99.90;;;;;;5054888;28;20044;-69
2022/04/30 07:51:13;;;;;;;0.38;0.20;;;11.30;99.90;;;;;;5056121;28;20040;-67
2022/04/30 07:53:39;;;;;;;0.38;0.20;;;11.30;99.90;;;;;;5046838;28;20037;-66
2022/04/30 07:56:05;;;;;;;0.30;0.20;;;11.60;99.90;;;;;;5054171;28;20032;-67
2022/04/30 07:58:30;;;;;;;1.05;0.68;;;11.80;99.90;;;;;;5056300;28;20040;-67
2022/04/30 08:00:56;;;;;;;0.68;0.30;;;12.10;99.90;;;;;;5055758;28;20029;-66
2022/04/30 08:03:22;;;;;;;0.60;0.30;;;12.30;99.90;;;;;;5044435;28;20042;-66
2022/04/30 08:05:47;;;;;;;0.70;0.30;;;12.50;99.90;;;;;;5048826;28;20049;-67
2022/04/30 08:08:13;;;;;;;0.43;0.22;;;12.60;99.90;;;;;;5051705;28;20037;-66
2022/04/30 08:10:39;;;;;;;1.25;0.68;;;12.80;99.90;;;;;;5048476;28;20192;-67
2022/04/30 08:13:06;;;;;;;0.20;0.20;;;13.10;99.90;;;;;;5050754;28;20037;-67
2022/04/30 08:15:32;;;;;;;0.45;0.20;;;13.40;99.90;;;;;;5056225;28;20049;-67
2022/04/30 08:17:58;;;;;;;0.20;0.20;;;13.20;99.90;;;;;;5046303;28;20032;-67
2022/04/30 08:20:24;;;;;;;0.28;0.20;;;13.40;99.90;;;;;;5049625;28;20022;-67
2022/04/30 08:22:50;;;;;;;0.25;0.20;;;13.00;99.90;;;;;;5051524;28;20033;-67
2022/04/30 08:25:16;;;;;;;0.13;0.13;;;12.90;99.90;;;;;;5057492;28;20072;-68
2022/04/30 08:27:42;;;;;;;0.15;0.15;;;12.70;99.90;;;;;;5050277;28;20045;-67
2022/04/30 08:30:09;;;;;;;0.60;0.30;;;12.60;99.90;;;;;;5045610;28;20036;-67
2022/04/30 08:32:36;;;;;;;0.10;0.10;;;12.30;99.90;;;;;;5041844;28;20013;-66
2022/04/30 08:35:02;;;;;;;0.47;0.28;;;12.30;99.90;;;;;;5046180;28;20022;-67
2022/04/30 08:37:31;;;;;;;0.20;0.20;;;12.10;99.90;;;;;;5044972;28;20116;-66
2022/04/30 08:39:56;;;;;;;0.43;0.20;;;12.00;99.90;;;;;;5048494;28;20056;-67
2022/04/30 08:42:23;;;;;;;0.40;0.20;;;12.10;99.90;;;;;;5045621;28;20079;-67
2022/04/30 08:44:50;;;;;;;0.20;0.20;;;12.00;99.90;;;;;;5044759;28;20063;-66
2022/04/30 08:47:15;;;;;;;0.20;0.20;;;12.00;99.90;;;;;;5045693;28;20033;-67
2022/04/30 08:49:42;;;;;;;0.52;0.30;;;12.10;99.90;;;;;;5046701;28;20036;-67
2022/04/30 08:52:12;;;;;;;0.32;0.20;;;12.00;99.90;;;;;;5041796;28;20018;-65
2022/04/30 08:54:38;;;;;;;0.17;0.17;;;12.10;99.90;;;;;;5039772;28;20101;-65
2022/04/30 08:57:04;;;;;;;0.75;0.30;;;12.10;99.90;;;;;;5046814;28;20162;-66
2022/04/30 08:59:30;;;;;;;0.70;0.30;;;12.10;99.90;;;;;;5044490;28;20029;-66
2022/04/30 09:01:58;;;;;;;0.60;0.25;;;12.20;99.90;;;;;;5043095;28;20079;-66
2022/04/30 09:04:41;;;;;;;0.77;0.30;;;12.30;99.90;;;;;;5044969;28;20025;-66
2022/04/30 09:07:12;;;;;;;0.88;0.50;;;12.30;99.90;;;;;;5051093;28;20057;-68
2022/04/30 09:09:38;;;;;;;;;;;12.50;99.90;;;;;;5046811;28;20025;-69
2022/04/30 09:12:09;;;;;;;0.25;0.20;;;12.70;99.90;;;;;;5044943;28;19913;-70
2022/04/30 09:14:38;;;;;;;0.35;0.20;;;12.70;99.90;;;;;;5046659;28;20123;-65
2022/04/30 09:17:15;;;;;;;0.93;0.32;;;13.20;99.90;;;;;;5053256;28;20017;-65
2022/04/30 09:19:56;;;;;;;0.60;0.30;;;13.50;99.90;;;;;;5040559;28;20025;-66
2022/04/30 09:22:29;;;;;;;0.60;0.28;;;14.20;99.90;;;;;;5041482;28;20037;-66
2022/04/30 09:24:56;;;;;;;0.32;0.20;;;14.20;99.90;;;;;;5041457;28;20097;-66
2022/04/30 09:27:22;;;;;;;0.10;0.10;;;14.00;99.90;;;;;;5042057;28;20510;-66
2022/04/30 09:29:48;;;;;;;0.47;0.20;;;13.90;99.90;;;;;;5055288;28;20528;-66
2022/04/30 09:32:32;;;;;;;0.38;0.20;;;14.20;99.90;;;;;;5040001;28;20046;-65
2022/04/30 09:37:42;;;;;;;0.45;0.20;;;14.00;99.90;;;;;;5051203;28;20052;-65
2022/04/30 09:40:09;;;;;;;0.45;0.20;;;13.60;99.90;;;;;;5041877;28;20023;-65
2022/04/30 09:42:38;;;;;;;0.47;0.20;;;13.70;99.90;;;;;;5041667;28;20013;-65
2022/04/30 09:45:04;;;;;;;0.28;0.20;;;14.00;99.90;;;;;;5039848;28;20030;-66
2022/04/30 09:47:33;;;;;;;0.30;0.20;;;14.20;99.90;;;;;;5046366;28;20084;-65
2022/04/30 09:55:34;;;;;;;0.15;0.15;;;15.10;99.90;;;;;;5061748;28;20044;-65
2022/04/30 09:58:04;;;;;;;0.10;0.10;;;15.10;99.90;;;;;;5053896;28;20025;-65
2022/04/30 10:00:33;;;;;;;0.10;0.10;;;15.10;99.90;;;;;;5055709;28;20087;-64
2022/04/30 10:03:02;;;;;;;0.32;0.20;;;15.40;99.90;;;;;;5059846;28;20092;-65
2022/04/30 10:05:30;;;;;;;0.47;0.20;;;15.50;99.90;;;;;;5058439;28;20048;-65
2022/04/30 10:07:56;;;;;;;0.28;0.20;;;15.40;99.90;;;;;;5058114;28;20088;-65
2022/04/30 10:10:31;;;;;;;0.28;0.20;;;15.40;92.20;;;;;;5057526;28;20052;-65
2022/04/30 10:13:28;;;;;;;0.20;0.20;;;14.90;99.90;;;;;;5043495;28;20103;-73
2022/04/30 10:15:57;;;;;;;0.15;0.13;;;15.40;99.90;;;;;;5050724;28;20452;-73
2022/04/30 10:18:41;;;;;;;0.20;0.20;;;15.30;98.20;;;;;;5046034;28;20027;-65
2022/04/30 10:21:17;;;;;;;0.10;0.10;;;15.10;98.60;;;;;;5043834;28;20018;-65
2022/04/30 10:23:43;;;;;;;0.20;0.20;;;15.30;99.90;;;;;;5044393;28;20052;-65
2022/04/30 10:26:09;;;;;;;0.43;0.30;;;14.80;99.20;;;;;;5040829;28;20108;-65
2022/04/30 10:28:34;;;;;;;0.20;0.10;;;14.90;99.90;;;;;;5056392;28;20029;-64
2022/04/30 10:31:06;;;;;;;0.43;0.20;;;14.70;98.30;;;;;;5056883;28;20025;-65
2022/04/30 10:33:32;;;;;;;0.35;0.20;;;14.80;99.90;;;;;;5059557;28;20062;-65
2022/04/30 10:36:06;;;;;;;0.57;0.30;;;14.30;96.30;;;;;;5046045;28;20436;-65
2022/04/30 10:38:33;;;;;;;0.10;0.10;;;14.00;99.90;;;;;;5039927;28;20037;-66
2022/04/30 10:41:00;;;;;;;0.82;0.30;;;14.00;99.90;;;;;;5057398;28;20022;-65
2022/04/30 10:43:42;;;;;;;0.52;0.20;;;13.90;99.90;;;;;;5059706;28;20059;-66
2022/04/30 10:46:38;;;;;;;0.65;0.25;;;13.80;99.90;;;;;;5059773;28;20040;-65
2022/04/30 10:49:06;;;;;;;0.63;0.20;;;13.60;99.90;;;;;;5050687;28;20082;-65
2022/04/30 10:51:39;;;;;;;0.13;0.13;;;13.40;99.90;;;;;;5062117;28;20050;-65
2022/04/30 10:54:11;;;;;;;0.43;0.20;;;13.20;99.90;;;;;;5063089;28;20033;-65
2022/04/30 10:56:39;;;;;;;0.60;0.20;;;12.90;99.90;;;;;;5062457;28;20464;-65
2022/04/30 10:59:05;;;;;;;0.22;0.20;;;12.80;99.90;;;;;;5050571;28;20028;-64
2022/04/30 11:01:31;;;;;;;0.52;0.20;;;12.60;99.90;;;;;;5049101;28;20632;-65
2022/04/30 11:03:57;;;;;;;0.68;0.25;;;12.40;99.90;;;;;;5064152;28;20111;-65
2022/04/30 11:06:30;;;;;;;0.77;0.30;;;12.40;99.90;;;;;;5062658;28;20037;-65
2022/04/30 11:09:05;;;;;;;0.38;0.20;;;12.40;99.90;;;;;;5062724;28;20025;-65
2022/04/30 11:11:31;;;;;;;0.30;0.20;;;12.40;99.90;;;;;;5057505;28;20472;-65
2022/04/30 11:14:05;;;;;;;0.20;0.20;;;12.20;99.90;;;;;;5061102;28;20025;-64
2022/04/30 11:16:35;;;;;;;0.80;0.30;;;12.20;99.90;;;;;;5063261;28;20029;-65
2022/04/30 11:19:08;;;;;;;0.38;0.20;;;12.10;99.90;;;;;;5061320;28;20025;-65
2022/04/30 11:21:53;;;;;;;0.68;0.30;;;12.00;99.90;;;;;;5061312;28;20028;-65
2022/04/30 11:24:24;;;;;;;0.80;0.30;;;12.10;99.90;;;;;;5042621;28;20053;-65
2022/04/30 11:26:59;;;;;;;0.40;0.20;;;12.00;99.90;;;;;;5043206;28;20069;-64
2022/04/30 11:29:25;;;;;;;0.20;0.20;;;11.90;99.90;;;;;;5044725;28;20029;-65
2022/04/30 11:31:55;;;;;;;0.70;0.30;;;12.00;99.90;;;;;;5048469;28;20025;-64
2022/04/30 11:34:21;;;;;;;1.27;0.65;;;12.00;99.90;;;;;;5063638;28;20394;-65
2022/04/30 11:36:56;;;;;;;0.40;0.20;;;12.10;99.90;;;;;;5056592;28;20035;-65
2022/04/30 11:39:22;;;;;;;0.38;0.20;;;12.10;99.90;;;;;;5047257;28;20063;-65
2022/04/30 11:41:50;;;;;;;0.20;0.20;;;12.20;99.90;;;;;;5057331;28;20036;-66
2022/04/30 11:44:17;;;;;;;0.88;0.30;;;12.10;99.90;;;;;;5058321;28;20056;-65
2022/04/30 11:46:45;;;;;;;0.38;0.20;;;12.10;99.90;;;;;;5063249;28;20048;-65
2022/04/30 11:49:15;;;;;;;0.70;0.40;;;12.20;99.90;;;;;;5059856;28;20048;-65
2022/04/30 11:51:42;;;;;;;0.68;0.30;;;12.20;99.90;;;;;;5043384;28;20044;-64
2022/04/30 11:54:11;;;;;;;0.40;0.25;;;12.30;99.90;;;;;;5049425;28;20032;-64
2022/04/30 11:56:38;;;;;;;0.70;0.30;;;12.30;99.90;;;;;;5062754;28;20025;-65
2022/04/30 11:59:04;;;;;;;0.40;0.20;;;12.20;99.90;;;;;;5062727;28;20032;-64
2022/04/30 12:01:33;;;;;;;0.88;0.30;;;12.30;99.90;;;;;;5048715;28;20422;-64
2022/04/30 12:04:02;;;;;;;0.20;0.20;;;12.10;99.90;;;;;;5059615;28;20032;-64
2022/04/30 12:06:28;;;;;;;0.47;0.20;;;12.10;99.90;;;;;;5040146;28;20409;-65
2022/04/30 12:08:54;;;;;;;0.32;0.20;;;12.10;99.90;;;;;;5042520;28;20727;-66
2022/04/30 12:11:20;;;;;;;0.75;0.30;;;12.20;99.90;;;;;;5041167;28;20171;-65
2022/04/30 12:14:00;;;;;;;1.00;0.55;;;12.20;99.90;;;;;;5041188;28;20064;-66
2022/04/30 12:16:33;;;;;;;0.30;0.20;;;12.20;99.90;;;;;;5052479;28;20096;-65
2022/04/30 12:24:40;;;;;;;0.43;0.20;;;12.00;99.90;;;;;;5058967;28;20040;-65
2022/04/30 12:27:09;;;;;;;0.55;0.28;;;12.20;99.90;;;;;;5059912;28;20048;-64
2022/04/30 12:29:35;;;;;;;0.75;0.30;;;12.10;99.90;;;;;;5042641;28;20084;-65
2022/04/30 12:32:05;;;;;;;0.68;0.30;;;12.40;99.90;;;;;;5051480;28;20036;-65
2022/04/30 12:34:37;;;;;;;0.45;0.22;;;12.50;99.90;;;;;;5061039;28;20101;-65
2022/04/30 12:37:04;;;;;;;0.20;0.20;;;12.60;99.90;;;;;;5060345;28;20105;-64
2022/04/30 12:39:29;;;;;;;0.35;0.20;;;12.60;99.90;;;;;;5057886;28;20025;-66
2022/04/30 12:41:59;;;;;;;0.20;0.20;;;12.70;99.90;;;;;;5053818;28;20018;-65
2022/04/30 12:44:25;;;;;;;0.45;0.22;;;12.60;99.90;;;;;;5051322;28;20032;-65
2022/04/30 12:46:51;;;;;;;0.40;0.20;;;12.50;99.90;;;;;;5062388;28;20071;-64
2022/04/30 12:49:17;;;;;;;0.20;0.20;;;12.40;99.90;;;;;;5058728;28;20063;-65
2022/04/30 12:51:46;;;;;;;1.17;0.82;;;12.40;99.90;;;;;;5059583;28;20025;-64
2022/04/30 12:54:13;;;;;;;0.77;0.30;;;12.40;99.90;;;;;;5041350;28;20112;-64
2022/04/30 12:56:43;;;;;;;0.75;0.30;;;12.30;99.90;;;;;;5041836;28;20029;-65
2022/04/30 12:59:10;;;;;;;0.28;0.20;;;12.40;99.90;;;;;;5052631;28;20037;-64
2022/04/30 13:01:37;;;;;;;0.20;0.20;;;12.40;99.90;;;;;;5062155;28;20369;-64
2022/04/30 13:04:03;;;;;;;0.40;0.20;;;12.40;99.90;;;;;;5049091;28;20033;-64
2022/04/30 13:06:29;;;;;;;0.40;0.20;;;12.40;99.90;;;;;;5041969;28;20044;-64
2022/04/30 13:14:24;;;;;;;0.50;0.30;;;12.10;99.90;;;;;;5047610;28;20194;-67
2022/04/30 13:16:50;;;;;;;0.28;0.20;;;12.20;99.90;;;;;;5061644;28;20036;-64
2022/04/30 13:19:16;;;;;;;0.45;0.30;;;12.20;99.90;;;;;;5057768;28;20051;-64
2022/04/30 13:21:46;;;;;;;0.50;0.35;;;12.10;99.90;;;;;;5060453;28;20025;-65
2022/04/30 13:24:15;;;;;;;0.77;0.30;;;12.00;99.90;;;;;;5059196;28;20032;-64
2022/04/30 13:26:44;;;;;;;0.43;0.20;;;12.10;99.90;;;;;;5059533;28;20041;-65
2022/04/30 13:29:11;;;;;;;0.50;0.30;;;12.20;99.90;;;;;;5060049;28;20147;-65
2022/04/30 13:31:41;;;;;;;0.30;0.20;;;12.10;99.90;;;;;;5054352;28;20029;-65
2022/04/30 13:34:07;;;;;;;0.47;0.28;;;12.20;99.90;;;;;;5055447;28;20018;-65
2022/04/30 13:36:37;;;;;;;0.38;0.20;;;12.20;99.90;;;;;;5040194;28;20021;-65